Castle Hot Springs, Arizona
Current Conditions -  °F | °C
As of 1:53 PM on Tuesday 25 Nov 2014 (Local Time) from KDVT Reporting Station
Clear Clear  
Wind Chill: 64°   Ceiling: Unl
Heat Index: 64°   Visibility: 10mi
Dew Point: -6°   Wind: 6mph
Humidity: 6%   Direction: 280°W
Pressure: 30.34"   Gusts: NA
Location:  33.98°N, 112.36°W
Report Text: KDVT 252053Z 28005KT 10SM CLR 18/M21 A3034 RMK AO2 SLP263 T01781211 56036
Loading
Personal Weather Stations






























Interactive Weather Map New forecast layout! Learn more

10-Day Weather Forecast

Advertisements
Track Severe Weather on mobile